createdAt,value
2023-02-24T00:32:26.151Z,56.94
2023-02-24T00:33:26.149Z,56.81
2023-02-24T00:34:26.304Z,56.89
2023-02-24T00:35:26.456Z,57.32
2023-02-24T00:36:27.303Z,57.29
2023-02-24T00:37:26.800Z,56.74
2023-02-24T00:38:26.886Z,56.53
2023-02-24T00:39:26.997Z,56.55
2023-02-24T00:40:27.134Z,56.94
2023-02-24T00:41:27.302Z,57.07
2023-02-24T00:42:27.442Z,56.89
2023-02-24T00:43:27.583Z,56.91
2023-02-24T00:44:27.717Z,57.37
2023-02-24T00:45:27.860Z,57.82
2023-02-24T00:46:28.210Z,57.33
2023-02-24T00:47:28.344Z,57.30
2023-02-24T00:48:28.583Z,56.79
2023-02-24T00:49:28.817Z,56.23
2023-02-24T00:50:29.049Z,56.19
2023-02-24T00:51:29.292Z,56.10
2023-02-24T00:52:29.542Z,55.85
2023-02-24T00:53:29.770Z,56.20
2023-02-24T00:54:29.904Z,55.95
2023-02-24T00:55:30.080Z,56.63
2023-02-24T00:56:30.300Z,56.50
2023-02-24T00:57:30.521Z,56.34
2023-02-24T00:58:30.737Z,56.51
2023-02-24T00:59:30.931Z,57.10
2023-02-24T01:00:31.163Z,56.94
2023-02-24T01:01:31.379Z,57.37
2023-02-24T01:02:31.456Z,57.15
2023-02-24T01:03:31.587Z,56.88
2023-02-24T01:04:31.641Z,56.68
2023-02-24T01:05:31.752Z,55.88
2023-02-24T01:06:31.849Z,56.54
2023-02-24T01:07:31.984Z,56.73
2023-02-24T01:08:32.129Z,56.20
2023-02-24T01:09:32.276Z,56.06
2023-02-24T01:10:32.423Z,56.21
2023-02-24T01:11:32.547Z,56.68
2023-02-24T01:12:32.692Z,56.07
2023-02-24T01:13:32.845Z,56.48
2023-02-24T01:14:32.986Z,56.73
2023-02-24T01:15:33.138Z,56.57
2023-02-24T01:16:33.296Z,56.56
2023-02-24T01:17:33.433Z,56.70
2023-02-24T01:18:33.579Z,56.68
2023-02-24T01:19:33.715Z,56.99
2023-02-24T01:20:33.850Z,56.90
2023-02-24T01:21:33.967Z,56.22
2023-02-24T01:22:34.091Z,55.99
2023-02-24T01:23:34.258Z,56.25
2023-02-24T01:24:34.394Z,56.70
2023-02-24T01:25:34.501Z,57.10
2023-02-24T01:26:34.596Z,57.71
2023-02-24T01:27:34.720Z,57.62
2023-02-24T01:28:34.843Z,57.92
2023-02-24T01:29:34.953Z,57.76
2023-02-24T01:30:35.063Z,58.02
2023-02-24T01:31:35.256Z,58.13
2023-02-24T01:32:35.534Z,57.92
2023-02-24T01:33:35.475Z,57.60
2023-02-24T01:34:35.602Z,57.57
2023-02-24T01:35:35.746Z,57.36
2023-02-24T01:36:35.896Z,57.32
2023-02-24T01:37:36.085Z,57.57
2023-02-24T01:38:36.256Z,57.67
2023-02-24T01:39:36.429Z,57.85
2023-02-24T01:40:36.552Z,58.24
2023-02-24T01:41:36.686Z,58.54
2023-02-24T01:42:36.819Z,58.34
2023-02-24T01:43:36.953Z,58.06
2023-02-24T01:44:37.078Z,57.66
2023-02-24T01:45:37.193Z,57.15
2023-02-24T01:46:37.372Z,57.05
2023-02-24T01:47:37.514Z,56.32
2023-02-24T01:48:37.603Z,55.93
2023-02-24T01:49:37.749Z,55.64
2023-02-24T01:50:37.898Z,55.50
2023-02-24T01:51:38.027Z,55.17
2023-02-24T01:52:38.129Z,55.03
2023-02-24T01:53:38.263Z,55.08
2023-02-24T01:54:38.606Z,55.06
2023-02-24T01:55:38.871Z,54.59
2023-02-24T01:56:39.124Z,55.01
2023-02-24T01:57:39.407Z,54.59
2023-02-24T01:58:39.660Z,54.17
2023-02-24T01:59:39.933Z,54.05
2023-02-24T02:00:40.078Z,53.81
2023-02-24T02:01:40.509Z,53.95
2023-02-24T02:02:40.800Z,53.39
2023-02-24T02:03:40.854Z,53.37
2023-02-24T02:04:41.115Z,53.15
2023-02-24T02:05:41.374Z,53.40
2023-02-24T02:06:41.560Z,53.14
2023-02-24T02:07:41.735Z,53.14
2023-02-24T02:08:41.952Z,53.16
2023-02-24T02:09:42.198Z,52.62
2023-02-24T02:10:42.417Z,53.09
2023-02-24T02:11:43.327Z,53.46
2023-02-24T02:12:42.789Z,53.29
2023-02-24T02:13:42.980Z,53.22
2023-02-24T02:14:43.088Z,53.11
2023-02-24T02:15:43.196Z,53.18
2023-02-24T02:16:43.360Z,52.91
2023-02-24T02:17:43.497Z,53.18
2023-02-24T02:18:43.637Z,52.81
2023-02-24T02:19:43.795Z,52.77
2023-02-24T02:20:43.937Z,52.87
2023-02-24T02:21:44.088Z,53.40
2023-02-24T02:22:44.218Z,52.89
2023-02-24T02:35:46.023Z,52.85
2023-02-24T02:36:46.144Z,52.71
2023-02-24T02:37:46.278Z,52.55
2023-02-24T02:38:46.404Z,52.51
2023-02-24T02:46:47.535Z,53.42
2023-02-24T02:47:47.658Z,53.86
2023-02-24T02:48:47.797Z,53.78
2023-02-24T02:49:47.890Z,53.54
2023-02-24T02:50:48.084Z,53.28
2023-02-24T02:51:48.153Z,53.20
2023-02-24T02:52:48.275Z,53.16
2023-02-24T02:53:49.332Z,53.55
2023-02-24T02:54:48.556Z,53.36
2023-02-24T02:55:48.719Z,54.11
2023-02-24T02:56:48.841Z,53.35
2023-02-24T02:57:48.956Z,53.17
2023-02-24T02:58:49.066Z,52.78
2023-02-24T02:59:49.187Z,52.66
2023-02-24T03:19:51.348Z,53.09
2023-02-24T03:20:51.506Z,54.18
2023-02-24T03:21:51.850Z,54.99
2023-02-24T03:50:55.937Z,56.88
2023-02-24T03:51:56.109Z,57.21
2023-02-24T03:52:56.301Z,57.56
2023-02-24T03:53:56.496Z,57.32
2023-02-24T03:54:56.684Z,57.14
2023-02-24T03:55:56.869Z,57.36
2023-02-24T03:56:56.993Z,57.46
2023-02-24T03:57:57.129Z,57.47
2023-02-24T03:58:57.304Z,57.41
2023-02-24T03:59:57.445Z,57.14
2023-02-24T04:00:57.633Z,57.74
2023-02-24T04:01:57.902Z,57.68
2023-02-24T04:02:58.019Z,57.45
2023-02-24T04:03:58.195Z,57.24
2023-02-24T04:04:58.425Z,57.33
2023-02-24T04:05:58.532Z,57.37
2023-02-24T04:06:59.324Z,57.08
2023-02-24T04:07:58.880Z,56.89
2023-02-24T04:08:59.058Z,57.00
2023-02-24T04:09:59.246Z,56.86
2023-02-24T04:10:59.402Z,56.44
2023-02-24T04:11:59.562Z,56.07
2023-02-24T04:12:59.771Z,56.26
2023-02-24T04:13:59.852Z,56.40
2023-02-24T04:14:59.963Z,56.80
2023-02-24T04:16:00.195Z,57.94
2023-02-24T04:17:00.367Z,58.30
2023-02-24T04:18:00.522Z,58.46
2023-02-24T04:19:00.724Z,57.91
2023-02-24T04:20:00.952Z,58.40
2023-02-24T04:21:01.191Z,58.07
2023-02-24T04:22:01.349Z,57.89
2023-02-24T04:23:01.503Z,57.47
2023-02-24T04:24:01.644Z,57.22
2023-02-24T04:25:01.791Z,57.03
2023-02-24T04:26:01.977Z,56.72
2023-02-24T04:27:02.152Z,56.26
2023-02-24T04:28:02.327Z,56.03
2023-02-24T04:29:02.501Z,55.41
2023-02-24T04:30:02.645Z,55.90
2023-02-24T04:31:02.866Z,55.75
2023-02-24T04:32:03.116Z,55.60
2023-02-24T04:33:03.022Z,55.40
2023-02-24T04:34:03.161Z,55.02
2023-02-24T04:35:03.319Z,54.70
2023-02-24T04:36:03.446Z,54.46
2023-02-24T04:37:03.586Z,55.01
2023-02-24T04:38:03.696Z,54.42
2023-02-24T04:39:03.828Z,54.26
2023-02-24T04:40:03.972Z,53.89
2023-02-24T04:41:04.110Z,53.77
2023-02-24T04:42:04.228Z,54.04
2023-02-24T04:43:04.369Z,54.01
2023-02-24T04:44:04.509Z,54.64
2023-02-24T04:45:04.655Z,54.72
2023-02-24T04:46:04.792Z,56.47
2023-02-24T04:47:04.926Z,56.42
2023-02-24T04:48:05.021Z,56.86
2023-02-24T04:49:05.126Z,56.16
2023-02-24T04:50:05.274Z,56.12
2023-02-24T04:51:05.381Z,55.78
2023-02-24T04:52:05.522Z,55.10
2023-02-24T04:53:05.666Z,55.61
2023-02-24T04:54:05.800Z,55.30
2023-02-24T04:55:05.922Z,55.00
2023-02-24T04:56:06.045Z,55.48
2023-02-24T04:57:06.154Z,55.10
2023-02-24T04:58:06.306Z,54.75
2023-02-24T04:59:06.443Z,54.41
2023-02-24T05:00:06.590Z,54.84
2023-02-24T05:01:06.767Z,54.55
2023-02-24T05:02:06.853Z,54.98
2023-02-24T05:03:07.000Z,55.02
2023-02-24T05:04:07.197Z,54.82
2023-02-24T05:05:07.238Z,54.90
2023-02-24T05:06:08.343Z,54.66
2023-02-24T05:07:07.502Z,54.92
2023-02-24T05:08:07.620Z,54.67
2023-02-24T05:09:07.734Z,54.31
2023-02-24T05:10:07.866Z,54.33
2023-02-24T05:11:08.026Z,54.18
2023-02-24T05:12:08.145Z,54.05
2023-02-24T05:13:08.275Z,53.89
2023-02-24T05:14:08.383Z,53.81
2023-02-24T05:15:08.499Z,53.49
2023-02-24T05:16:08.712Z,53.37
2023-02-24T05:17:08.752Z,54.38
2023-02-24T05:18:08.936Z,54.77
2023-02-24T05:19:09.119Z,55.35
2023-02-24T06:01:16.282Z,58.45
2023-02-24T06:02:16.364Z,58.75
2023-02-24T06:03:16.548Z,58.51
2023-02-24T06:04:16.728Z,58.83
2023-02-24T07:02:25.966Z,54.42
2023-02-24T07:03:26.119Z,54.32
2023-02-24T07:04:28.540Z,54.64
2023-02-24T07:05:26.366Z,54.51
2023-02-24T07:06:26.498Z,54.26
2023-02-24T07:07:26.553Z,53.50
2023-02-24T07:08:26.633Z,53.74
2023-02-24T07:09:26.704Z,53.19
2023-02-24T07:10:26.832Z,53.37
2023-02-24T07:11:27.767Z,53.58
2023-02-24T07:12:26.940Z,53.13
2023-02-24T07:13:27.010Z,52.46
2023-02-24T07:14:27.073Z,52.38
2023-02-24T07:15:27.164Z,52.49
2023-02-24T07:16:27.260Z,52.36
2023-02-24T07:17:27.344Z,52.66
2023-02-24T07:18:27.504Z,52.70
2023-02-24T07:19:27.559Z,52.47
2023-02-24T07:20:27.691Z,52.59
2023-02-24T07:21:27.776Z,52.50
2023-02-24T07:22:27.873Z,52.66
2023-02-24T07:23:27.964Z,52.69
2023-02-24T07:24:28.074Z,52.59
2023-02-24T07:26:28.287Z,53.12
2023-02-24T08:37:37.490Z,47.27
2023-02-24T08:45:35.946Z,45.43
2023-02-24T08:46:36.015Z,44.98
2023-02-24T08:47:36.036Z,46.69
2023-02-24T08:48:36.108Z,47.44
2023-02-24T08:49:36.182Z,46.91
2023-02-24T08:50:36.286Z,46.09
2023-02-24T08:51:36.375Z,45.39
2023-02-24T08:52:36.410Z,44.96
2023-02-24T08:53:36.574Z,44.62
2023-02-24T08:54:36.721Z,44.23
2023-02-24T08:55:36.873Z,44.45
2023-02-24T08:56:37.143Z,43.98
2023-02-24T08:57:37.310Z,43.93
2023-02-24T08:58:37.508Z,43.76
2023-02-24T08:59:38.124Z,44.86
2023-02-24T09:00:37.765Z,44.15
2023-02-24T09:01:37.758Z,43.86
2023-02-24T09:02:37.810Z,44.47
2023-02-24T09:03:37.885Z,44.41
2023-02-24T09:04:38.047Z,43.65
2023-02-24T09:05:38.006Z,43.44
2023-02-24T09:06:38.063Z,43.35
2023-02-24T09:07:38.126Z,43.71
2023-02-24T09:08:38.228Z,43.85
2023-02-24T09:09:38.218Z,43.26
2023-02-24T09:10:39.781Z,42.71
2023-02-24T09:11:38.340Z,42.42
2023-02-24T09:12:38.395Z,41.90
2023-02-24T09:13:38.484Z,41.87
2023-02-24T09:14:38.563Z,41.83
2023-02-24T09:15:38.603Z,41.16
2023-02-24T09:16:38.733Z,41.18
2023-02-24T09:17:38.765Z,41.16
2023-02-24T09:18:38.851Z,40.48
2023-02-24T09:19:38.911Z,40.11
2023-02-24T11:44:42.186Z,29.63
2023-02-24T11:45:42.138Z,29.97
2023-02-24T11:46:42.145Z,30.51
2023-02-24T11:47:42.050Z,30.41
2023-02-24T11:49:41.978Z,29.68
2023-02-24T11:50:41.948Z,29.66
2023-02-24T11:51:41.888Z,30.05
2023-02-24T11:52:41.842Z,29.49
2023-02-24T11:53:41.820Z,29.48
2023-02-24T11:54:41.865Z,28.88
2023-02-24T11:55:42.913Z,29.13
2023-02-24T11:56:41.939Z,29.42
2023-02-24T11:57:42.401Z,29.34
2023-02-24T11:58:41.853Z,29.27
2023-02-24T11:59:41.814Z,28.99
2023-02-24T12:00:41.795Z,28.69
2023-02-24T12:01:41.822Z,28.57
2023-02-24T12:02:41.910Z,28.83
2023-02-24T12:03:41.995Z,28.55
2023-02-24T12:04:42.106Z,28.36
2023-02-24T12:05:42.361Z,28.31
2023-02-24T12:28:46.029Z,27.76
2023-02-24T12:29:46.287Z,27.76
2023-02-24T12:30:46.464Z,27.74
2023-02-24T12:31:46.726Z,27.66
2023-02-24T12:32:47.043Z,27.69
2023-02-24T12:33:46.989Z,27.63
2023-02-24T12:34:47.171Z,28.15
2023-02-24T12:35:47.348Z,27.22
2023-02-24T12:36:47.546Z,27.87
2023-02-24T12:37:47.736Z,27.46
2023-02-24T12:38:47.905Z,27.51
2023-02-24T12:39:48.072Z,27.40
2023-02-24T13:26:56.039Z,26.85
2023-02-24T13:27:56.216Z,25.93
2023-02-24T13:28:56.368Z,25.75
2023-02-24T13:29:57.705Z,25.72
2023-02-24T13:30:56.561Z,26.30
2023-02-24T13:31:56.642Z,26.06
2023-02-24T13:32:56.529Z,25.73
2023-02-24T13:33:56.496Z,25.88
2023-02-24T13:34:56.475Z,26.14
2023-02-24T13:35:57.507Z,25.56
2023-02-24T13:36:56.433Z,26.12
2023-02-24T13:37:56.437Z,25.20
2023-02-24T13:38:56.411Z,25.15
2023-02-24T13:39:56.344Z,25.22
2023-02-24T13:40:56.288Z,25.20
2023-02-24T13:41:57.495Z,25.28
2023-02-24T13:42:56.188Z,25.26
2023-02-24T13:43:56.151Z,25.45
2023-02-24T13:44:56.149Z,25.17
2023-02-24T13:45:56.158Z,24.95
2023-02-24T13:46:56.088Z,25.12
2023-02-24T13:47:59.772Z,25.08
2023-02-24T13:48:56.958Z,25.01
2023-02-24T15:04:56.091Z,23.21
2023-02-24T15:05:56.236Z,23.17
2023-02-24T15:06:56.389Z,23.42
2023-02-24T15:07:56.501Z,23.30
2023-02-24T15:08:56.653Z,23.29
2023-02-24T15:09:56.804Z,23.18
2023-02-24T16:12:05.985Z,24.12
2023-02-24T16:13:06.144Z,24.21
2023-02-24T16:14:06.352Z,25.12
2023-02-24T16:15:06.428Z,25.09
2023-02-24T16:16:06.708Z,24.81
2023-02-24T16:17:06.689Z,25.14
2023-02-24T16:18:06.926Z,25.53
2023-02-24T16:19:07.090Z,25.57
2023-02-24T16:20:07.253Z,24.96
2023-02-24T16:21:07.451Z,24.98
2023-02-24T16:22:07.579Z,24.78
2023-02-24T16:23:07.764Z,24.87
2023-02-24T16:24:07.929Z,25.35
2023-02-24T17:09:16.035Z,28.33
2023-02-24T17:10:16.246Z,28.36
2023-02-24T17:11:16.534Z,28.21
2023-02-24T17:12:16.580Z,28.13
2023-02-24T17:13:16.755Z,28.29
2023-02-24T17:14:16.935Z,28.66
2023-02-24T17:15:17.118Z,28.26
2023-02-24T17:16:17.325Z,28.66
2023-02-24T17:17:17.529Z,29.01
2023-02-24T17:18:18.288Z,28.92
2023-02-24T17:19:17.716Z,29.01
2023-02-24T17:20:17.734Z,28.96
2023-02-24T17:21:17.746Z,29.33
2023-02-24T17:22:17.777Z,28.88
2023-02-24T17:23:17.750Z,29.07
2023-02-24T17:24:17.758Z,29.26
2023-02-24T17:25:17.737Z,29.32
2023-02-24T17:26:17.735Z,29.39
2023-02-24T17:27:17.731Z,29.59
2023-02-24T17:28:17.714Z,29.70
2023-02-24T17:29:17.698Z,29.92
2023-02-24T17:30:17.878Z,29.67
2023-02-24T17:31:19.077Z,30.10
2023-02-24T17:32:18.334Z,30.30
2023-02-24T17:33:18.035Z,30.59
2023-02-24T17:34:18.015Z,30.36
2023-02-24T17:35:18.003Z,30.23
2023-02-24T17:36:17.987Z,29.88
2023-02-24T17:37:17.957Z,30.14
2023-02-24T17:38:17.955Z,30.38
2023-02-24T17:39:17.970Z,30.68
2023-02-24T17:40:18.017Z,30.90
2023-02-24T17:41:18.067Z,30.86
2023-02-24T17:42:18.099Z,30.75
2023-02-24T17:43:18.145Z,30.69
2023-02-24T17:44:18.184Z,31.29
2023-02-24T17:45:18.210Z,31.21
2023-02-24T17:46:18.241Z,31.59
2023-02-24T17:47:18.235Z,31.14
2023-02-24T17:48:18.237Z,31.13
2023-02-24T17:49:18.246Z,31.22
2023-02-24T17:50:18.460Z,30.88
2023-02-24T17:51:18.676Z,31.21
2023-02-24T17:52:18.866Z,31.98
2023-02-24T17:53:19.096Z,31.47
2023-02-24T17:54:19.320Z,31.66
2023-02-24T17:55:19.525Z,32.21
2023-02-24T17:56:19.894Z,32.18
2023-02-24T17:57:19.960Z,32.75
2023-02-24T17:58:20.205Z,33.09
2023-02-24T17:59:20.456Z,33.01
2023-02-24T18:24:25.973Z,33.11
2023-02-24T18:25:26.171Z,33.36
2023-02-24T18:26:26.707Z,33.34
2023-02-24T18:27:26.368Z,33.16
2023-02-24T18:28:26.349Z,33.18
2023-02-24T18:29:26.365Z,33.19
2023-02-24T18:30:26.375Z,33.45
2023-02-24T18:31:26.481Z,33.56
2023-02-24T18:32:26.623Z,33.91
2023-02-24T18:33:26.525Z,34.19
2023-02-24T18:34:26.394Z,34.24
2023-02-24T18:35:26.387Z,34.12
2023-02-24T18:36:26.368Z,34.22
2023-02-24T18:37:26.347Z,34.69
2023-02-24T18:38:26.346Z,34.87
2023-02-24T18:39:26.333Z,35.01
2023-02-24T18:40:26.327Z,34.83
2023-02-24T18:41:26.328Z,34.67
2023-02-24T18:42:26.371Z,34.95
2023-02-24T18:43:26.388Z,34.83
2023-02-24T18:44:26.395Z,34.58
2023-02-24T18:45:26.411Z,34.66
2023-02-24T18:46:26.766Z,34.80
2023-02-24T18:47:26.414Z,35.25
2023-02-24T18:48:26.459Z,35.27
2023-02-24T18:49:26.477Z,35.14
2023-02-24T18:50:26.508Z,34.92
2023-02-24T18:51:26.527Z,34.42
2023-02-24T18:52:26.534Z,34.71
2023-02-24T18:53:26.549Z,34.62
2023-02-24T18:54:26.570Z,34.24
2023-02-24T18:55:26.569Z,33.99
2023-02-24T18:56:26.589Z,34.21
2023-02-24T18:57:26.582Z,33.83
2023-02-24T18:58:26.594Z,33.97
2023-02-24T18:59:26.565Z,34.25
2023-02-24T19:00:26.578Z,34.27
2023-02-24T19:01:26.619Z,34.56
2023-02-24T19:02:26.556Z,34.45
2023-02-24T19:03:26.589Z,34.16
2023-02-24T19:04:26.802Z,33.82
2023-02-24T19:05:36.907Z,33.84
2023-02-24T19:06:27.994Z,33.91
2023-02-24T19:07:26.951Z,33.67
2023-02-24T19:08:26.934Z,33.65
2023-02-24T19:09:26.892Z,33.82
2023-02-24T19:10:26.874Z,34.67
2023-02-24T19:11:26.849Z,33.96
2023-02-24T19:12:26.884Z,34.14
2023-02-24T19:13:26.855Z,34.34
2023-02-24T19:14:26.833Z,34.48
2023-02-24T19:15:26.806Z,34.37
2023-02-24T19:16:26.894Z,34.63
2023-02-24T19:17:26.748Z,34.74
2023-02-24T19:18:26.742Z,34.43
2023-02-24T19:19:26.703Z,34.38
2023-02-24T19:20:26.672Z,34.87
2023-02-24T19:21:26.653Z,35.40
2023-02-24T19:22:26.612Z,34.91
2023-02-24T19:23:26.585Z,35.01
2023-02-24T19:24:26.563Z,34.90
2023-02-24T19:25:26.539Z,34.75
2023-02-24T19:26:26.504Z,34.79
2023-02-24T19:27:26.479Z,35.49
2023-02-24T19:28:26.462Z,35.39
2023-02-24T19:29:28.028Z,35.60
2023-02-24T19:30:26.417Z,35.37
2023-02-24T19:31:26.499Z,35.51
2023-02-24T19:32:26.551Z,35.66
2023-02-24T19:33:26.440Z,35.32
2023-02-24T19:34:26.449Z,35.36
2023-02-24T19:35:26.439Z,35.27
2023-02-24T19:36:26.438Z,35.36
2023-02-24T19:37:26.449Z,36.10
2023-02-24T19:39:26.766Z,36.04
2023-02-24T19:40:26.743Z,36.41
2023-02-24T19:41:26.750Z,36.73
2023-02-24T19:42:26.756Z,36.24
2023-02-24T19:43:26.772Z,36.63
2023-02-24T19:51:26.938Z,36.79
2023-02-24T19:52:27.155Z,36.54
2023-02-24T19:53:27.375Z,36.36
2023-02-24T19:54:27.605Z,36.15
2023-02-24T19:55:27.827Z,36.55
2023-02-24T19:56:28.036Z,36.10
2023-02-24T19:57:28.250Z,36.05
2023-02-24T19:58:28.481Z,36.07
2023-02-24T20:32:36.072Z,38.14
2023-02-24T20:33:36.185Z,38.34
2023-02-24T20:34:36.632Z,38.29
2023-02-24T20:35:37.994Z,38.29
2023-02-24T20:36:36.615Z,38.52
2023-02-24T20:37:36.631Z,38.69
2023-02-24T20:38:36.673Z,38.81
2023-02-24T20:39:36.700Z,39.23
2023-02-24T20:40:36.721Z,38.82
2023-02-24T20:41:36.764Z,39.34
2023-02-24T20:42:36.778Z,38.59
2023-02-24T20:43:36.809Z,38.59
2023-02-24T20:44:36.816Z,38.29
2023-02-24T20:45:36.880Z,39.02
2023-02-24T20:46:36.845Z,39.20
2023-02-24T20:47:36.820Z,38.84
2023-02-24T20:48:36.806Z,38.44
2023-02-24T20:49:36.809Z,37.73
2023-02-24T20:50:36.811Z,37.60
2023-02-24T20:51:36.819Z,38.19
2023-02-24T20:52:36.802Z,40.18
2023-02-24T20:53:47.839Z,39.16
2023-02-24T20:54:37.794Z,39.51
2023-02-24T20:55:36.786Z,39.03
2023-02-24T20:56:36.752Z,39.09
2023-02-24T20:57:36.737Z,39.11
2023-02-24T20:58:36.718Z,38.72
2023-02-24T20:59:36.699Z,38.62
2023-02-24T21:00:36.676Z,38.70
2023-02-24T21:01:36.748Z,38.76
2023-02-24T21:02:36.630Z,38.73
2023-02-24T21:03:36.610Z,38.68
2023-02-24T21:04:36.656Z,38.55
2023-02-24T21:05:36.568Z,38.46
2023-02-24T21:06:36.569Z,38.68
2023-02-24T21:07:36.531Z,38.72
2023-02-24T21:08:36.517Z,38.60
2023-02-24T21:09:36.524Z,38.47
2023-02-24T21:10:36.490Z,38.45
2023-02-24T21:11:36.459Z,38.55
2023-02-24T21:12:36.456Z,38.58
2023-02-24T21:13:36.451Z,38.39
2023-02-24T21:14:36.432Z,38.31
2023-02-24T21:15:36.488Z,37.06
2023-02-24T21:16:36.465Z,36.93
2023-02-24T21:17:36.457Z,36.61
2023-02-24T21:18:36.479Z,36.93
2023-02-24T21:19:36.497Z,37.13
2023-02-24T21:20:36.510Z,37.29
2023-02-24T21:21:36.536Z,37.67
2023-02-24T21:22:36.568Z,37.63
2023-02-24T21:23:36.572Z,37.75
2023-02-24T21:24:36.600Z,38.14
2023-02-24T21:25:36.610Z,38.07
2023-02-24T21:26:36.633Z,38.01
2023-02-24T21:27:36.643Z,37.92
2023-02-24T21:28:36.686Z,37.78
2023-02-24T21:29:36.700Z,38.07
2023-02-24T21:30:36.779Z,38.14
2023-02-24T21:31:36.908Z,38.23
2023-02-24T21:32:36.846Z,38.21
2023-02-24T21:33:36.823Z,38.11
2023-02-24T21:34:36.838Z,37.78
2023-02-24T21:35:36.864Z,37.83
2023-02-24T21:36:36.889Z,38.02
2023-02-24T21:37:36.924Z,38.17
2023-02-24T21:38:36.952Z,38.34
2023-02-24T21:39:36.979Z,38.22
2023-02-24T21:40:36.995Z,38.49
2023-02-24T21:41:37.029Z,38.34
2023-02-24T21:42:37.045Z,38.30
2023-02-24T21:43:37.079Z,38.57
2023-02-24T21:44:37.107Z,39.12
2023-02-24T21:45:37.133Z,39.43
2023-02-24T21:46:37.155Z,39.19
2023-02-24T21:47:37.162Z,39.04
2023-02-24T21:48:37.222Z,39.01
2023-02-24T21:49:37.195Z,39.27
2023-02-24T21:50:37.196Z,39.31
2023-02-24T21:51:37.215Z,39.22
2023-02-24T21:52:37.254Z,39.04
2023-02-24T21:53:37.271Z,39.19
2023-02-24T21:54:37.309Z,39.10
2023-02-24T21:55:37.387Z,39.10
2023-02-24T21:56:37.620Z,39.06
2023-02-24T21:57:39.368Z,39.13
2023-02-24T21:58:37.826Z,38.95
2023-02-24T21:59:37.815Z,38.78
2023-02-24T22:00:37.788Z,38.59
2023-02-24T22:01:37.798Z,38.66
2023-02-24T22:02:37.757Z,38.55
2023-02-24T22:03:37.917Z,38.53
2023-02-24T22:04:37.723Z,39.01
2023-02-24T22:05:37.709Z,39.19
2023-02-24T22:06:37.705Z,39.44
2023-02-24T22:07:37.690Z,38.90
2023-02-24T22:08:37.704Z,38.96
2023-02-24T22:09:37.682Z,39.12
2023-02-24T22:10:37.666Z,39.03
2023-02-24T22:11:37.659Z,39.37
2023-02-24T22:12:37.645Z,40.88
2023-02-24T22:13:37.639Z,42.12
2023-02-24T22:14:37.636Z,42.12
2023-02-24T22:15:37.621Z,42.00
2023-02-24T22:16:37.712Z,41.97
2023-02-24T22:17:37.593Z,42.34
2023-02-24T22:18:37.584Z,42.53
2023-02-24T22:19:37.574Z,43.71
2023-02-24T22:20:37.577Z,43.31
2023-02-24T22:21:37.571Z,43.49
2023-02-24T22:22:37.546Z,43.59
2023-02-24T22:23:37.526Z,43.29
2023-02-24T22:24:37.514Z,43.55
2023-02-24T22:25:37.485Z,43.61
2023-02-24T22:26:37.472Z,45.06
2023-02-24T22:27:37.457Z,45.43
2023-02-24T22:28:37.429Z,44.75
2023-02-24T22:29:37.410Z,45.79
2023-02-24T22:30:37.402Z,45.97
2023-02-24T22:31:37.462Z,45.25
2023-02-24T22:32:37.395Z,45.42
2023-02-24T22:33:37.361Z,45.59
2023-02-24T22:34:37.347Z,46.58
2023-02-24T22:35:37.323Z,46.31
2023-02-24T22:36:37.329Z,47.70
2023-02-24T22:37:37.302Z,46.19
2023-02-24T22:38:37.284Z,47.02
2023-02-24T22:39:37.288Z,46.65
2023-02-24T22:40:37.285Z,47.24
2023-02-24T22:41:37.242Z,49.40
2023-02-24T22:42:37.225Z,49.78
2023-02-24T22:43:37.223Z,49.39
2023-02-24T22:44:37.226Z,50.65
